Time;durP1;ratioP1;P1;durP2;ratioP2;P2;SDS_P1;SDS_P2;PMS_P1;PMS_P2;Temp;Humidity;BMP_temperature;BMP_pressure;BME280_temperature;BME280_humidity;BME280_pressure;Samples;Min_cycle;Max_cycle;Signal;HPM_P1;HPM_P2
2023/08/19 00:00:59;;;;;;;4.82;4.10;;;27.70;66.00;28.50;100501.00;;;;5011068;28;20245;-56
2023/08/19 00:03:24;;;;;;;5.13;3.97;;;27.60;65.90;28.50;100495.00;;;;5010331;28;20266;-56
2023/08/19 00:05:50;;;;;;;5.70;4.20;;;27.60;66.00;28.50;100495.00;;;;5009050;28;20187;-56
2023/08/19 00:08:16;;;;;;;4.90;4.10;;;27.60;65.90;28.50;100483.00;;;;5010126;28;20183;-56
2023/08/19 00:10:42;;;;;;;4.97;4.22;;;27.60;65.90;28.50;100489.00;;;;5010069;28;20210;-55
2023/08/19 00:13:07;;;;;;;5.00;4.10;;;27.60;65.90;28.50;100487.00;;;;5010289;28;20211;-56
2023/08/19 00:15:34;;;;;;;5.20;4.05;;;27.60;65.90;28.50;100490.00;;;;5010324;28;20192;-55
2023/08/19 00:18:00;;;;;;;6.07;4.07;;;27.60;65.90;28.50;100491.00;;;;5008629;28;20317;-55
2023/08/19 00:20:28;;;;;;;5.20;4.07;;;27.60;65.90;28.50;100486.00;;;;5010446;28;20796;-55
2023/08/19 00:22:57;;;;;;;5.28;3.78;;;27.60;65.90;28.50;100486.00;;;;5013633;28;20337;-55
2023/08/19 00:25:24;;;;;;;4.60;4.15;;;27.60;65.90;28.50;100483.00;;;;5009852;28;20754;-55
2023/08/19 00:27:53;;;;;;;4.85;4.18;;;27.60;66.20;28.50;100485.00;;;;5009865;28;20242;-54
2023/08/19 00:30:19;;;;;;;4.30;3.83;;;27.60;66.50;28.50;100487.00;;;;5009667;28;20183;-55
2023/08/19 00:32:46;;;;;;;4.65;4.25;;;27.60;66.80;28.50;100482.00;;;;5009733;28;20204;-54
2023/08/19 00:35:13;;;;;;;5.05;4.25;;;27.60;67.20;28.50;100488.00;;;;5009662;28;20523;-54
2023/08/19 00:37:39;;;;;;;4.63;4.00;;;27.50;67.40;28.50;100484.00;;;;5009566;28;20183;-54
2023/08/19 00:40:05;;;;;;;5.30;4.45;;;27.50;67.60;28.50;100491.00;;;;5009272;28;20541;-56
2023/08/19 00:42:31;;;;;;;4.75;4.30;;;27.50;67.70;28.50;100486.00;;;;5009565;28;20208;-56
2023/08/19 00:44:57;;;;;;;5.47;4.32;;;27.60;67.90;28.50;100488.00;;;;5010558;28;20183;-55
2023/08/19 00:47:26;;;;;;;4.80;4.18;;;27.60;68.00;28.50;100479.00;;;;5014577;28;20291;-55
2023/08/19 00:49:51;;;;;;;5.00;4.50;;;27.50;68.00;28.50;100494.00;;;;4992493;28;20179;-55
2023/08/19 00:52:17;;;;;;;4.70;4.13;;;27.50;68.10;28.50;100500.00;;;;5007961;28;20210;-55
2023/08/19 00:54:43;;;;;;;5.18;4.00;;;27.50;68.50;28.50;100505.00;;;;5008143;28;20275;-55
2023/08/19 00:57:09;;;;;;;4.45;4.05;;;27.60;68.60;28.50;100489.00;;;;4991865;28;20191;-56
2023/08/19 00:59:35;;;;;;;4.72;4.20;;;27.50;68.50;28.50;100498.00;;;;5008166;28;20769;-56
2023/08/19 01:02:00;;;;;;;4.63;4.22;;;27.50;69.40;28.50;100490.00;;;;4995931;28;20207;-56
2023/08/19 01:04:26;;;;;;;4.95;4.10;;;27.50;68.60;28.40;100498.00;;;;5012071;28;20180;-55
2023/08/19 01:07:00;;;;;;;4.53;4.10;;;27.50;68.60;28.40;100494.00;;;;5009364;28;20215;-56
2023/08/19 01:09:43;;;;;;;4.80;4.28;;;27.50;68.80;28.40;100495.00;;;;5008048;28;20167;-56
2023/08/19 01:12:29;;;;;;;4.38;3.97;;;27.50;68.80;28.40;100493.00;;;;5009083;28;20203;-56
2023/08/19 01:15:21;;;;;;;4.72;4.32;;;27.50;68.90;28.40;100501.00;;;;5008004;28;20229;-55
2023/08/19 01:17:48;;;;;;;4.07;3.78;;;27.50;68.90;28.40;100480.00;;;;5008797;28;20183;-55
2023/08/19 01:20:14;;;;;;;5.60;4.40;;;27.50;69.00;28.40;100484.00;;;;5008727;28;20179;-57
2023/08/19 01:22:52;;;;;;;4.45;4.05;;;27.50;69.00;28.40;100489.00;;;;5012211;28;20882;-56
2023/08/19 01:25:19;;;;;;;4.70;4.15;;;27.50;68.90;28.40;100493.00;;;;5009200;28;20171;-56
2023/08/19 01:27:44;;;;;;;4.20;3.80;;;27.50;68.90;28.40;100493.00;;;;5008989;28;20211;-55
2023/08/19 01:30:11;;;;;;;4.18;3.80;;;27.50;68.60;28.40;100492.00;;;;5008783;28;20824;-56
2023/08/19 01:32:37;;;;;;;4.25;3.85;;;27.50;68.60;28.30;100479.00;;;;5008814;28;20254;-55
2023/08/19 01:35:05;;;;;;;4.57;4.10;;;27.50;68.60;28.30;100472.00;;;;5007635;28;20656;-55
2023/08/19 01:37:57;;;;;;;4.25;3.90;;;27.50;68.50;28.40;100475.00;;;;5007744;28;20654;-55
2023/08/19 01:40:23;;;;;;;4.72;4.05;;;27.50;68.20;28.30;100477.00;;;;5007545;28;20187;-55
2023/08/19 01:42:49;;;;;;;4.30;3.90;;;27.50;67.80;28.30;100465.00;;;;4990924;28;20204;-57
2023/08/19 01:45:14;;;;;;;4.28;3.97;;;27.50;67.50;28.30;100476.00;;;;4991152;28;20187;-55
2023/08/19 01:47:42;;;;;;;4.45;3.90;;;27.50;67.20;28.30;100473.00;;;;4974689;28;20294;-55
2023/08/19 01:50:08;;;;;;;5.13;3.90;;;27.40;66.80;28.20;100468.00;;;;5008330;28;20206;-55
2023/08/19 01:52:34;;;;;;;5.43;3.92;;;27.40;66.70;28.20;100470.00;;;;5008571;28;20310;-55
2023/08/19 01:55:00;;;;;;;4.32;3.92;;;27.40;66.50;28.20;100471.00;;;;5007290;28;20171;-55
2023/08/19 01:57:27;;;;;;;5.05;3.88;;;27.40;66.40;28.10;100474.00;;;;5008442;28;20540;-56
2023/08/19 01:59:56;;;;;;;4.80;3.90;;;27.30;66.30;28.10;100476.00;;;;5008448;28;20175;-55
2023/08/19 02:02:25;;;;;;;4.45;3.70;;;27.30;66.20;28.10;100485.00;;;;5008479;28;20439;-56
2023/08/19 02:04:50;;;;;;;4.25;3.85;;;27.30;66.10;28.10;100475.00;;;;5008504;28;20638;-56
2023/08/19 02:07:16;;;;;;;4.38;3.80;;;27.30;66.20;28.10;100479.00;;;;5007362;28;20219;-56
2023/08/19 02:09:43;;;;;;;4.60;3.80;;;27.30;66.10;28.10;100483.00;;;;5007879;28;20187;-57
2023/08/19 02:12:09;;;;;;;6.47;3.85;;;27.30;66.10;28.10;100471.00;;;;5008258;28;20195;-55
2023/08/19 02:14:35;;;;;;;6.28;4.03;;;27.30;66.20;28.10;100476.00;;;;5008488;28;20230;-56
2023/08/19 02:17:00;;;;;;;5.78;3.80;;;27.30;66.10;28.10;100478.00;;;;5010458;28;20187;-55
2023/08/19 02:19:26;;;;;;;4.40;3.85;;;27.30;66.00;28.00;100485.00;;;;5012188;28;20175;-55
2023/08/19 02:21:52;;;;;;;4.50;3.63;;;27.30;65.70;28.00;100483.00;;;;5016467;28;20226;-56
2023/08/19 02:24:18;;;;;;;7.97;3.90;;;27.30;65.70;28.00;100480.00;;;;5012074;28;20206;-55
2023/08/19 02:26:43;;;;;;;5.60;3.45;;;27.20;65.60;28.00;100478.00;;;;5012134;28;20203;-55
2023/08/19 02:29:09;;;;;;;5.25;3.47;;;27.20;65.60;28.00;100475.00;;;;5012047;28;20746;-55
2023/08/19 02:31:38;;;;;;;5.35;3.80;;;27.20;65.70;28.00;100469.00;;;;5011812;28;20224;-55
2023/08/19 02:34:04;;;;;;;4.45;3.70;;;27.20;65.60;28.00;100476.00;;;;5010536;28;20176;-55
2023/08/19 02:36:31;;;;;;;5.07;3.80;;;27.20;65.60;28.00;100475.00;;;;5010290;28;20261;-56
2023/08/19 02:38:57;;;;;;;4.78;3.55;;;27.20;65.60;27.90;100476.00;;;;5011722;28;20330;-55
2023/08/19 02:41:23;;;;;;;4.03;3.50;;;27.20;65.50;27.90;100461.00;;;;5010569;28;20555;-55
2023/08/19 02:43:50;;;;;;;5.00;3.78;;;27.20;65.60;27.90;100464.00;;;;5011931;28;20210;-56
2023/08/19 02:46:15;;;;;;;4.47;3.70;;;27.10;65.50;27.90;100471.00;;;;5011827;28;20759;-56
2023/08/19 02:48:41;;;;;;;6.28;3.80;;;27.10;65.50;27.80;100456.00;;;;5011752;28;20172;-56
2023/08/19 02:51:07;;;;;;;4.70;3.28;;;27.10;65.40;27.80;100456.00;;;;5011463;28;20267;-55
2023/08/19 02:53:33;;;;;;;4.10;3.35;;;27.10;65.50;27.80;100453.00;;;;5012100;28;20206;-56
2023/08/19 02:55:58;;;;;;;4.65;3.53;;;27.10;65.50;27.80;100460.00;;;;5011902;28;20175;-58
2023/08/19 02:58:25;;;;;;;3.95;3.58;;;27.10;65.50;27.70;100449.00;;;;5014832;28;20204;-55
2023/08/19 03:00:51;;;;;;;5.75;3.88;;;27.10;65.60;27.70;100449.00;;;;5015155;28;20277;-61
2023/08/19 03:03:17;;;;;;;5.20;3.50;;;27.00;65.40;27.70;100445.00;;;;5012182;28;20195;-54
2023/08/19 03:05:42;;;;;;;4.63;3.67;;;27.00;65.50;27.70;100441.00;;;;5012575;28;20198;-56
2023/08/19 03:08:09;;;;;;;4.45;3.50;;;27.00;65.40;27.70;100447.00;;;;5012478;28;20208;-59
2023/08/19 03:10:39;;;;;;;5.10;3.42;;;27.00;65.40;27.70;100445.00;;;;5012522;28;20203;-54
2023/08/19 03:13:06;;;;;;;4.90;3.47;;;27.00;65.40;27.60;100449.00;;;;5012354;28;20287;-55
2023/08/19 03:15:33;;;;;;;5.28;3.63;;;27.00;65.40;27.60;100449.00;;;;5018773;28;20194;-54
2023/08/19 03:17:58;;;;;;;5.03;3.67;;;27.00;65.40;27.60;100450.00;;;;5012305;28;20225;-56
2023/08/19 03:20:24;;;;;;;4.15;3.47;;;27.00;65.40;27.50;100440.00;;;;5012621;28;20182;-54
2023/08/19 03:22:50;;;;;;;3.50;3.20;;;26.90;65.40;27.60;100437.00;;;;5016061;28;20195;-55
2023/08/19 03:25:16;;;;;;;4.43;3.75;;;27.00;65.40;27.60;100433.00;;;;5011919;28;20274;-56
2023/08/19 03:27:41;;;;;;;3.97;3.38;;;26.90;65.40;27.60;100430.00;;;;5010847;28;20719;-56
2023/08/19 03:30:08;;;;;;;3.60;3.30;;;26.90;65.40;27.50;100438.00;;;;5011808;28;20171;-56
2023/08/19 03:32:34;;;;;;;4.25;3.50;;;26.90;65.40;27.60;100437.00;;;;5011586;28;20207;-55
2023/08/19 03:34:59;;;;;;;5.10;3.55;;;26.90;65.40;27.50;100437.00;;;;5011653;28;20179;-56
2023/08/19 03:37:25;;;;;;;4.45;3.45;;;26.90;65.60;27.50;100435.00;;;;5011813;28;20263;-56
2023/08/19 03:39:51;;;;;;;6.57;3.80;;;26.90;65.40;27.50;100437.00;;;;5011677;28;20183;-56
2023/08/19 03:42:17;;;;;;;6.03;3.70;;;26.90;65.40;27.50;100430.00;;;;5011593;28;20195;-55
2023/08/19 03:44:42;;;;;;;4.28;3.58;;;26.90;65.40;27.50;100423.00;;;;5011819;28;20612;-55
2023/08/19 03:47:13;;;;;;;3.97;3.40;;;26.90;65.40;27.50;100426.00;;;;5011515;28;20250;-56
2023/08/19 03:49:39;;;;;;;4.65;3.63;;;26.80;65.30;27.50;100414.00;;;;5011576;28;20171;-55
2023/08/19 03:52:05;;;;;;;4.28;3.60;;;26.80;65.30;27.50;100428.00;;;;5011554;28;20202;-56
2023/08/19 03:54:31;;;;;;;3.90;3.50;;;26.80;65.30;27.50;100424.00;;;;5012013;28;20179;-56
2023/08/19 03:56:57;;;;;;;4.10;3.60;;;26.80;65.30;27.50;100433.00;;;;5011820;28;20242;-56
2023/08/19 03:59:23;;;;;;;3.97;3.47;;;26.80;65.30;27.50;100431.00;;;;5011733;28;20195;-56
2023/08/19 04:01:48;;;;;;;4.40;3.33;;;26.80;65.30;27.40;100435.00;;;;5009623;28;20180;-56
2023/08/19 04:04:14;;;;;;;5.20;3.45;;;26.90;65.40;27.50;100440.00;;;;5010810;28;20829;-56
2023/08/19 04:06:40;;;;;;;8.07;3.60;;;26.80;65.30;27.50;100434.00;;;;5011028;28;20235;-55
2023/08/19 04:09:07;;;;;;;7.43;3.70;;;26.80;65.30;27.40;100440.00;;;;5011278;28;20254;-56
2023/08/19 04:11:32;;;;;;;6.95;3.47;;;26.80;65.30;27.40;100441.00;;;;5011084;28;20184;-55
2023/08/19 04:13:58;;;;;;;6.35;3.40;;;26.80;65.30;27.40;100435.00;;;;5011083;28;20192;-56
2023/08/19 04:16:24;;;;;;;7.82;3.42;;;26.80;65.60;27.40;100438.00;;;;5011079;28;20186;-56
2023/08/19 04:18:50;;;;;;;4.70;3.50;;;26.80;65.80;27.40;100434.00;;;;5010950;28;20273;-56
2023/08/19 04:21:16;;;;;;;3.75;3.33;;;26.80;66.00;27.40;100452.00;;;;5010488;28;20183;-56
2023/08/19 04:23:42;;;;;;;4.82;3.40;;;26.80;66.00;27.40;100450.00;;;;5010629;28;20225;-55
2023/08/19 04:26:08;;;;;;;4.75;3.17;;;26.80;66.00;27.40;100451.00;;;;5009586;28;20207;-56
2023/08/19 04:28:33;;;;;;;5.03;3.53;;;26.80;66.00;27.40;100453.00;;;;5010751;28;20198;-56
2023/08/19 04:31:03;;;;;;;4.88;3.20;;;26.80;66.20;27.40;100451.00;;;;5010570;28;20186;-57
2023/08/19 04:33:30;;;;;;;4.03;3.58;;;26.80;66.10;27.40;100453.00;;;;5010598;28;20199;-55
2023/08/19 04:35:56;;;;;;;4.15;3.30;;;26.70;65.80;27.40;100453.00;;;;5010579;28;20179;-54
2023/08/19 04:38:21;;;;;;;4.22;3.35;;;26.80;65.70;27.40;100455.00;;;;5010644;28;20187;-56
2023/08/19 04:40:47;;;;;;;3.60;3.30;;;26.70;65.60;27.40;100450.00;;;;5009953;28;20283;-55
2023/08/19 04:43:13;;;;;;;3.53;3.22;;;26.80;65.60;27.40;100454.00;;;;5010418;28;20281;-55
2023/08/19 04:45:38;;;;;;;4.20;3.20;;;26.70;65.40;27.40;100447.00;;;;5009249;28;20183;-54
2023/08/19 04:48:05;;;;;;;4.53;3.10;;;26.70;65.40;27.40;100444.00;;;;5010433;28;20549;-54
2023/08/19 04:50:32;;;;;;;3.50;3.20;;;26.70;65.40;27.40;100457.00;;;;5010343;28;20175;-55
2023/08/19 04:52:58;;;;;;;3.60;3.25;;;26.70;65.20;27.40;100453.00;;;;5010362;28;20222;-56
2023/08/19 04:55:23;;;;;;;3.55;3.22;;;26.70;65.20;27.40;100449.00;;;;5003268;28;20191;-56
2023/08/19 04:57:49;;;;;;;3.30;3.00;;;26.70;65.20;27.40;100454.00;;;;5010205;28;20226;-55
2023/08/19 05:00:15;;;;;;;3.80;3.20;;;26.70;65.20;27.40;100445.00;;;;5009644;28;20263;-55
2023/08/19 05:02:41;;;;;;;3.65;3.10;;;26.70;65.20;27.40;100454.00;;;;5010035;28;20204;-56
2023/08/19 05:05:07;;;;;;;3.90;3.10;;;26.70;65.20;27.40;100424.00;;;;5009916;28;20520;-54
2023/08/19 05:07:33;;;;;;;3.90;2.97;;;26.70;65.20;27.40;100462.00;;;;5008512;28;20231;-56
2023/08/19 05:09:59;;;;;;;3.95;3.55;;;26.70;65.20;27.40;100462.00;;;;5012194;28;20178;-54
2023/08/19 05:12:25;;;;;;;4.43;3.22;;;26.70;65.20;27.30;100473.00;;;;5015593;28;20199;-56
2023/08/19 05:14:51;;;;;;;5.80;3.70;;;26.70;65.20;27.30;100463.00;;;;5012574;28;20183;-55
2023/08/19 05:17:18;;;;;;;3.33;3.03;;;26.70;65.20;27.30;100467.00;;;;5009693;28;20547;-55
2023/08/19 05:19:43;;;;;;;3.20;2.80;;;26.70;65.30;27.30;100468.00;;;;5009486;28;20186;-55
2023/08/19 05:22:09;;;;;;;3.60;3.30;;;26.60;65.20;27.30;100467.00;;;;5009624;28;20211;-56
2023/08/19 05:24:35;;;;;;;3.78;3.17;;;26.60;65.30;27.30;100472.00;;;;5008630;28;20221;-55
2023/08/19 05:27:01;;;;;;;3.30;3.08;;;26.70;65.50;27.30;100476.00;;;;5013534;28;20203;-55
2023/08/19 05:29:26;;;;;;;3.65;3.22;;;26.70;65.40;27.30;100476.00;;;;5010396;28;20184;-55
2023/08/19 05:31:52;;;;;;;3.30;3.00;;;26.70;65.60;27.30;100474.00;;;;5008644;28;20202;-55
2023/08/19 05:34:18;;;;;;;3.30;3.00;;;26.70;65.70;27.30;100473.00;;;;5008829;28;20202;-55
2023/08/19 05:36:44;;;;;;;4.97;3.25;;;26.70;65.80;27.30;100467.00;;;;5009436;28;20237;-54
2023/08/19 05:39:09;;;;;;;3.67;3.15;;;26.60;65.70;27.30;100475.00;;;;5008701;28;20662;-55
2023/08/19 05:41:35;;;;;;;3.60;3.10;;;26.60;65.80;27.30;100472.00;;;;5008466;28;20211;-57
2023/08/19 05:44:01;;;;;;;5.70;3.20;;;26.60;65.80;27.20;100469.00;;;;5009469;28;20183;-55
2023/08/19 05:46:27;;;;;;;3.78;3.10;;;26.60;65.90;27.20;100466.00;;;;5009301;28;20759;-55
2023/08/19 05:48:53;;;;;;;4.72;3.40;;;26.60;65.90;27.20;100473.00;;;;5009256;28;20182;-55
2023/08/19 05:51:19;;;;;;;3.60;3.30;;;26.60;65.90;27.20;100470.00;;;;5007595;28;20740;-55
2023/08/19 05:53:44;;;;;;;4.03;3.40;;;26.60;65.80;27.20;100471.00;;;;5008830;28;20207;-57
2023/08/19 05:56:10;;;;;;;3.65;3.28;;;26.60;66.00;27.20;100476.00;;;;5008963;28;20190;-57
2023/08/19 05:58:38;;;;;;;3.53;3.00;;;26.60;66.00;27.20;100478.00;;;;5008915;28;20190;-55
2023/08/19 06:01:03;;;;;;;7.53;3.17;;;26.60;66.00;27.20;100481.00;;;;5008131;28;20175;-55
2023/08/19 06:03:29;;;;;;;4.57;3.10;;;26.60;66.20;27.20;100487.00;;;;5008526;28;20961;-55
2023/08/19 06:05:55;;;;;;;4.00;3.08;;;26.60;66.10;27.20;100481.00;;;;5009010;28;20281;-55
2023/08/19 06:08:21;;;;;;;3.53;3.22;;;26.60;66.20;27.20;100483.00;;;;5008914;28;20207;-55
2023/08/19 06:11:00;;;;;;;3.67;3.20;;;26.60;66.40;27.20;100493.00;;;;5007995;28;20176;-55
2023/08/19 06:13:25;;;;;;;3.92;3.28;;;26.60;66.50;27.10;100490.00;;;;5007709;28;20582;-55
2023/08/19 06:15:51;;;;;;;4.20;3.10;;;26.60;66.60;27.20;100491.00;;;;5008616;28;20179;-56
2023/08/19 06:18:17;;;;;;;3.67;3.30;;;26.60;66.60;27.20;100492.00;;;;5008478;28;20661;-55
2023/08/19 06:20:42;;;;;;;5.72;3.30;;;26.60;66.80;27.20;100497.00;;;;5008230;28;20184;-56
2023/08/19 06:23:08;;;;;;;3.53;3.22;;;26.50;66.70;27.10;100495.00;;;;5008618;28;20216;-54
2023/08/19 06:25:34;;;;;;;3.45;3.15;;;26.50;66.90;27.10;100497.00;;;;5008810;28;20183;-56
2023/08/19 06:27:59;;;;;;;3.42;2.92;;;26.60;67.00;27.20;100502.00;;;;5008825;28;20203;-56
2023/08/19 06:30:25;;;;;;;4.63;3.10;;;26.50;67.00;27.10;100508.00;;;;5007947;28;20666;-56
2023/08/19 06:32:51;;;;;;;3.10;2.80;;;26.50;67.20;27.10;100497.00;;;;5008605;28;20290;-56
2023/08/19 06:35:17;;;;;;;3.55;3.03;;;26.50;67.20;27.10;100505.00;;;;5008858;28;20214;-55
2023/08/19 06:37:47;;;;;;;6.65;3.30;;;26.50;67.40;27.10;100504.00;;;;5008815;28;20180;-56
2023/08/19 06:40:13;;;;;;;3.58;3.10;;;26.50;67.50;27.10;100515.00;;;;5007192;28;20235;-55
2023/08/19 06:42:39;;;;;;;4.63;3.33;;;26.50;67.50;27.10;100511.00;;;;4991683;28;20234;-55
2023/08/19 06:45:07;;;;;;;3.97;2.90;;;26.50;67.50;27.10;100526.00;;;;5007926;28;20187;-55
2023/08/19 06:47:33;;;;;;;3.88;3.40;;;26.50;67.80;27.20;100528.00;;;;5007196;28;20698;-56
2023/08/19 06:49:58;;;;;;;3.50;3.25;;;26.50;67.80;27.20;100526.00;;;;4974306;28;20278;-56
2023/08/19 06:52:25;;;;;;;5.97;4.03;;;26.50;68.00;27.20;100529.00;;;;5006654;28;20274;-55
2023/08/19 06:54:51;;;;;;;4.40;3.40;;;26.50;68.20;27.20;100520.00;;;;5003729;28;20172;-55
2023/08/19 06:57:28;;;;;;;3.60;3.30;;;26.50;68.20;27.20;100526.00;;;;5005476;28;20194;-54
2023/08/19 07:00:00;;;;;;;4.53;3.35;;;26.50;68.30;27.10;100518.00;;;;5004976;28;20183;-55
2023/08/19 07:02:28;;;;;;;3.35;3.00;;;26.50;68.40;27.10;100520.00;;;;4988102;28;20231;-56
2023/08/19 07:04:53;;;;;;;3.67;3.05;;;26.50;68.50;27.10;100520.00;;;;5011835;28;20171;-55
2023/08/19 07:07:21;;;;;;;3.63;3.30;;;26.50;68.50;27.10;100522.00;;;;5012074;28;20200;-57
2023/08/19 07:09:47;;;;;;;4.05;3.22;;;26.50;68.60;27.10;100523.00;;;;5010079;28;20218;-55
2023/08/19 07:12:14;;;;;;;3.72;3.20;;;26.50;68.70;27.10;100513.00;;;;5011541;28;20233;-55
2023/08/19 07:14:40;;;;;;;5.07;3.10;;;26.50;68.70;27.10;100515.00;;;;5011791;28;20266;-56
2023/08/19 07:17:06;;;;;;;4.10;3.40;;;26.50;68.70;27.10;100514.00;;;;5010745;28;20547;-55
2023/08/19 07:19:40;;;;;;;3.58;3.28;;;26.50;68.70;27.10;100513.00;;;;4978214;28;20333;-55
2023/08/19 07:22:06;;;;;;;3.90;3.15;;;26.50;68.70;27.10;100527.00;;;;5012933;28;20234;-56
2023/08/19 07:24:32;;;;;;;3.67;3.38;;;26.50;68.70;27.10;100520.00;;;;5017898;28;20183;-56
2023/08/19 07:27:06;;;;;;;3.47;3.10;;;26.50;68.70;27.00;100529.00;;;;5012021;28;20674;-55
2023/08/19 07:29:31;;;;;;;4.35;3.28;;;26.50;68.70;27.10;100528.00;;;;5010582;28;20206;-55
2023/08/19 07:31:58;;;;;;;5.88;3.63;;;26.50;68.70;27.10;100521.00;;;;5011499;28;20222;-56
2023/08/19 07:34:24;;;;;;;3.67;3.17;;;26.50;68.70;27.10;100524.00;;;;5012395;28;20266;-56
2023/08/19 07:36:50;;;;;;;4.22;3.30;;;26.50;68.70;27.10;100527.00;;;;5010175;28;20222;-56
2023/08/19 07:39:16;;;;;;;3.45;3.15;;;26.50;69.50;27.10;100533.00;;;;5013839;28;20191;-55
2023/08/19 07:41:42;;;;;;;4.93;3.25;;;26.50;68.70;27.10;100531.00;;;;5010801;28;20214;-55
2023/08/19 07:44:08;;;;;;;4.43;3.30;;;26.50;68.70;27.10;100535.00;;;;5009616;28;20184;-55
2023/08/19 07:46:33;;;;;;;4.18;3.60;;;26.60;68.80;27.20;100541.00;;;;5006524;28;20253;-55
2023/08/19 07:48:59;;;;;;;4.97;3.42;;;26.60;68.80;27.20;100546.00;;;;5016801;28;20230;-55
2023/08/19 07:51:25;;;;;;;4.50;3.50;;;26.60;68.80;27.20;100556.00;;;;5021571;28;20239;-57
2023/08/19 07:53:51;;;;;;;6.35;3.78;;;26.60;69.00;27.20;100553.00;;;;5022524;28;20191;-55
2023/08/19 07:56:19;;;;;;;3.80;3.45;;;26.60;69.00;27.20;100550.00;;;;5014998;28;20180;-55
2023/08/19 07:58:45;;;;;;;4.25;3.22;;;26.60;69.60;27.20;100558.00;;;;5011624;28;20179;-54
2023/08/19 08:01:11;;;;;;;4.53;3.50;;;26.60;69.40;27.30;100551.00;;;;5010726;28;20184;-55
2023/08/19 08:03:39;;;;;;;3.90;3.47;;;26.60;69.80;27.30;100548.00;;;;5009863;28;20705;-54
2023/08/19 08:06:05;;;;;;;4.00;3.60;;;26.70;70.20;27.40;100556.00;;;;5010596;28;20251;-55
2023/08/19 08:08:31;;;;;;;6.75;3.78;;;26.70;70.70;27.40;100557.00;;;;5011040;28;20299;-55
2023/08/19 08:10:56;;;;;;;5.50;3.90;;;26.70;70.90;27.40;100559.00;;;;5010778;28;20176;-55
2023/08/19 08:13:22;;;;;;;6.70;3.83;;;26.70;71.20;27.40;100565.00;;;;5010915;28;20214;-55
2023/08/19 08:15:48;;;;;;;5.22;3.90;;;26.70;70.80;27.40;100555.00;;;;5006077;28;20175;-55
2023/08/19 08:18:14;;;;;;;6.13;3.72;;;26.70;70.80;27.40;100556.00;;;;5010518;28;20196;-55
2023/08/19 08:20:40;;;;;;;5.32;3.75;;;26.70;70.90;27.40;100547.00;;;;5009461;28;20175;-55
2023/08/19 08:23:06;;;;;;;5.80;3.50;;;26.70;71.20;27.50;100550.00;;;;5009632;28;20207;-55
2023/08/19 08:25:31;;;;;;;3.60;3.30;;;26.80;71.30;27.50;100551.00;;;;5009390;28;20245;-54
2023/08/19 08:27:58;;;;;;;6.20;3.63;;;26.80;71.20;27.50;100554.00;;;;5010609;28;20765;-55
2023/08/19 08:30:24;;;;;;;4.72;3.60;;;26.80;71.20;27.50;100537.00;;;;5009733;28;20263;-59
2023/08/19 08:32:51;;;;;;;5.22;3.45;;;26.80;71.10;27.50;100542.00;;;;5008124;28;20202;-55
2023/08/19 08:35:17;;;;;;;4.78;3.95;;;26.80;71.00;27.50;100537.00;;;;5009477;28;20180;-55
2023/08/19 08:37:43;;;;;;;3.95;3.55;;;26.80;71.00;27.60;100540.00;;;;5010976;28;20195;-54
2023/08/19 08:40:09;;;;;;;4.00;3.60;;;26.80;70.90;27.60;100545.00;;;;5010536;28;20643;-54
2023/08/19 08:42:35;;;;;;;4.13;3.72;;;26.80;70.90;27.60;100547.00;;;;5010429;28;20211;-55
2023/08/19 08:45:01;;;;;;;4.10;3.70;;;26.80;70.90;27.60;100554.00;;;;4992871;28;20238;-57
2023/08/19 08:47:27;;;;;;;4.97;3.75;;;26.80;70.80;27.60;100562.00;;;;4992972;28;20208;-56
2023/08/19 08:49:53;;;;;;;4.35;3.42;;;26.80;70.80;27.60;100568.00;;;;5009490;28;20263;-56
2023/08/19 08:52:20;;;;;;;4.90;3.80;;;26.80;70.70;27.70;100555.00;;;;5009278;28;20210;-56
2023/08/19 08:54:46;;;;;;;4.13;3.47;;;26.90;70.90;27.70;100565.00;;;;5010608;28;20575;-55
2023/08/19 08:57:14;;;;;;;3.95;3.55;;;26.90;70.80;27.70;100574.00;;;;5010620;28;20179;-56
2023/08/19 08:59:39;;;;;;;4.22;3.72;;;26.90;70.80;27.70;100586.00;;;;5009016;28;20191;-55
2023/08/19 09:02:05;;;;;;;4.07;3.70;;;26.90;70.80;27.70;100594.00;;;;5008890;28;20199;-54
2023/08/19 09:04:31;;;;;;;4.75;3.63;;;26.90;70.80;27.70;100601.00;;;;4992522;28;20187;-56
2023/08/19 09:07:30;;;;;;;4.20;3.80;;;26.90;70.80;27.70;100606.00;;;;4992574;28;20214;-54
2023/08/19 09:09:55;;;;;;;5.03;3.53;;;26.90;70.90;27.70;100609.00;;;;5010028;28;20183;-55
2023/08/19 09:12:22;;;;;;;3.70;3.40;;;26.90;70.80;27.70;100611.00;;;;4976528;28;20270;-55
2023/08/19 09:14:53;;;;;;;4.00;3.60;;;26.90;70.80;27.70;100622.00;;;;5009982;28;20186;-55
2023/08/19 09:17:18;;;;;;;4.22;3.60;;;26.90;70.80;27.70;100606.00;;;;5008858;28;20269;-54
2023/08/19 09:19:44;;;;;;;3.58;3.28;;;26.90;70.80;27.70;100606.00;;;;5010596;28;20556;-55
2023/08/19 09:22:16;;;;;;;4.18;3.75;;;26.90;70.80;27.80;100610.00;;;;5010020;28;20550;-56
2023/08/19 09:24:42;;;;;;;4.00;3.60;;;26.90;70.90;27.80;100620.00;;;;5010111;28;20657;-55
2023/08/19 09:27:07;;;;;;;5.18;3.22;;;26.90;70.90;27.80;100614.00;;;;5009341;28;20229;-55
2023/08/19 09:29:34;;;;;;;3.70;3.40;;;26.90;70.80;27.80;100622.00;;;;5010087;28;20531;-55
2023/08/19 09:31:59;;;;;;;3.97;3.35;;;26.90;70.80;27.80;100619.00;;;;4992455;28;20204;-54
2023/08/19 09:34:26;;;;;;;3.80;3.50;;;26.90;70.90;27.80;100627.00;;;;5011388;28;20235;-55
2023/08/19 09:36:58;;;;;;;3.92;3.38;;;26.90;71.00;27.80;100632.00;;;;5018918;28;20514;-54
2023/08/19 09:39:25;;;;;;;3.50;3.20;;;26.90;70.90;27.80;100627.00;;;;5010286;28;20191;-56
2023/08/19 09:41:57;;;;;;;3.60;3.30;;;27.00;71.10;27.80;100630.00;;;;4992329;28;20238;-55
2023/08/19 09:44:26;;;;;;;3.65;3.20;;;27.00;71.10;27.90;100635.00;;;;5008552;28;20692;-56
2023/08/19 09:46:53;;;;;;;3.40;3.10;;;27.00;71.10;27.90;100636.00;;;;5008780;28;20219;-56
2023/08/19 09:49:22;;;;;;;4.05;3.15;;;27.00;71.10;27.90;100619.00;;;;4976860;28;20282;-56
2023/08/19 09:51:59;;;;;;;3.53;3.15;;;27.00;71.10;27.90;100634.00;;;;5013639;28;20254;-56
2023/08/19 09:54:25;;;;;;;3.70;3.40;;;27.00;71.10;27.90;100623.00;;;;5012277;28;20183;-55
2023/08/19 09:56:55;;;;;;;3.88;3.47;;;27.00;71.10;27.90;100632.00;;;;5009631;28;20258;-55
2023/08/19 09:59:22;;;;;;;4.18;3.60;;;27.00;71.20;28.00;100639.00;;;;5009850;28;20218;-55
2023/08/19 10:01:49;;;;;;;3.30;3.00;;;27.00;71.20;28.00;100647.00;;;;5009373;28;20257;-55
2023/08/19 10:04:15;;;;;;;3.30;3.00;;;27.00;71.20;28.00;100647.00;;;;5009605;28;20646;-55
2023/08/19 10:06:43;;;;;;;3.40;3.10;;;27.00;71.20;28.00;100653.00;;;;5009691;28;20249;-55
2023/08/19 10:09:09;;;;;;;3.20;3.00;;;27.10;71.30;28.00;100651.00;;;;5008525;28;20176;-55
2023/08/19 10:11:35;;;;;;;3.60;3.30;;;27.10;71.30;28.10;100650.00;;;;5008059;28;20273;-55
2023/08/19 10:14:03;;;;;;;3.58;3.20;;;27.10;71.30;28.10;100657.00;;;;5008197;28;20180;-55
2023/08/19 10:16:31;;;;;;;3.45;3.20;;;27.10;71.30;28.10;100655.00;;;;5009758;28;20179;-55
2023/08/19 10:18:57;;;;;;;3.50;3.20;;;27.10;71.30;28.10;100659.00;;;;5008084;28;20184;-55
2023/08/19 10:21:22;;;;;;;3.60;3.30;;;27.10;71.30;28.10;100654.00;;;;5008437;28;20195;-55
2023/08/19 10:23:48;;;;;;;3.50;3.20;;;27.20;71.40;28.10;100655.00;;;;5008206;28;20246;-55
2023/08/19 10:26:17;;;;;;;3.30;3.10;;;27.20;71.50;28.20;100653.00;;;;5008099;28;20184;-55
2023/08/19 10:29:12;;;;;;;3.35;3.05;;;27.20;71.60;28.20;100659.00;;;;5007951;28;20215;-55
2023/08/19 10:31:39;;;;;;;3.35;3.05;;;27.20;71.70;28.20;100643.00;;;;5007960;28;20695;-55
2023/08/19 10:34:24;;;;;;;3.55;3.20;;;27.20;71.70;28.20;100639.00;;;;5008174;28;20183;-56
2023/08/19 10:37:09;;;;;;;3.45;3.15;;;27.20;71.80;28.20;100645.00;;;;5009692;28;20218;-55
2023/08/19 10:39:35;;;;;;;3.40;3.20;;;27.30;72.10;28.30;100647.00;;;;5013238;28;20662;-55
2023/08/19 10:42:01;;;;;;;3.53;3.22;;;27.30;72.10;28.30;100657.00;;;;5012647;28;20663;-55
2023/08/19 10:44:31;;;;;;;3.20;2.90;;;27.30;72.30;28.30;100645.00;;;;5012781;28;20184;-55
2023/08/19 10:47:15;;;;;;;3.30;3.00;;;27.30;72.20;28.30;100647.00;;;;4995546;28;20199;-55